createdAt,value
2024-04-09T00:00:20.190Z,68.74
2024-04-09T00:01:21.122Z,65.96
2024-04-09T00:02:22.021Z,64.52
2024-04-09T00:03:22.978Z,65.30
2024-04-09T00:04:24.024Z,65.70
2024-04-09T00:05:24.583Z,63.99
2024-04-09T00:06:25.555Z,63.35
2024-04-09T00:07:26.397Z,62.85
2024-04-09T00:08:27.288Z,63.15
2024-04-09T00:09:28.213Z,63.25
2024-04-09T00:10:29.063Z,62.24
2024-04-09T00:11:29.977Z,64.03
2024-04-09T00:12:30.852Z,62.65
2024-04-09T00:13:31.709Z,64.06
2024-04-09T00:14:32.626Z,60.03
2024-04-09T00:15:33.660Z,57.14
2024-04-09T00:16:34.066Z,57.61
2024-04-09T00:17:35.045Z,58.94
2024-04-09T00:18:36.046Z,60.35
2024-04-09T00:19:36.518Z,61.18
2024-04-09T00:20:37.403Z,60.98
2024-04-09T00:21:38.534Z,59.27
2024-04-09T00:22:38.937Z,56.93
2024-04-09T00:23:39.819Z,56.10
2024-04-09T00:24:40.744Z,56.30
2024-04-09T00:25:41.600Z,56.01
2024-04-09T00:26:42.481Z,55.88
2024-04-09T00:27:43.666Z,57.98
2024-04-09T00:28:44.045Z,58.22
2024-04-09T00:29:44.955Z,56.91
2024-04-09T00:30:45.823Z,57.21
2024-04-09T00:31:46.702Z,55.60
2024-04-09T00:32:47.702Z,55.47
2024-04-09T00:33:48.715Z,53.85
2024-04-09T00:34:49.324Z,51.92
2024-04-09T00:35:49.802Z,51.92
2024-04-09T00:36:50.679Z,53.62
2024-04-09T00:37:51.560Z,51.32
2024-04-09T00:38:52.491Z,51.51
2024-04-09T00:39:53.339Z,50.71
2024-04-09T00:40:54.220Z,50.51
2024-04-09T00:41:55.135Z,49.49
2024-04-09T00:42:55.993Z,50.19
2024-04-09T00:43:56.880Z,48.89
2024-04-09T00:44:57.848Z,48.58
2024-04-09T00:45:58.256Z,48.89
2024-04-09T00:46:59.203Z,47.86
2024-04-09T00:48:00.195Z,47.34
2024-04-09T00:49:00.699Z,48.04
2024-04-09T00:50:01.176Z,48.07
2024-04-09T00:51:02.111Z,47.46
2024-04-09T00:52:02.997Z,48.16
2024-04-09T00:53:03.920Z,48.07
2024-04-09T00:54:04.891Z,48.86
2024-04-09T00:55:05.350Z,48.07
2024-04-09T00:56:06.236Z,48.16
2024-04-09T00:57:07.196Z,48.76
2024-04-09T00:58:08.043Z,49.37
2024-04-09T00:59:08.919Z,49.26
2024-04-09T01:00:09.866Z,48.99
2024-04-09T01:01:10.727Z,49.19
2024-04-09T01:02:11.607Z,50.19
2024-04-09T01:03:12.688Z,49.61
2024-04-09T01:04:13.249Z,50.31
2024-04-09T01:05:13.676Z,51.62
2024-04-09T01:06:14.661Z,52.32
2024-04-09T01:07:15.114Z,50.42
2024-04-09T01:08:16.020Z,51.21
2024-04-09T01:09:16.899Z,51.51
2024-04-09T01:10:17.778Z,52.24
2024-04-09T01:11:18.671Z,51.84
2024-04-09T01:12:19.714Z,52.55
2024-04-09T01:13:20.097Z,52.44
2024-04-09T01:14:20.981Z,52.84
2024-04-09T01:15:22.022Z,53.07
2024-04-09T01:16:22.388Z,52.26
2024-04-09T01:17:23.299Z,54.38
2024-04-09T01:18:24.295Z,54.88
2024-04-09T01:19:24.775Z,55.47
2024-04-09T01:20:25.700Z,56.41
2024-04-09T01:21:26.592Z,56.91
2024-04-09T01:22:27.455Z,56.30
2024-04-09T01:23:28.342Z,57.24
2024-04-09T01:24:29.246Z,56.43
2024-04-09T01:25:30.138Z,58.24
2024-04-09T01:26:31.053Z,56.03
2024-04-09T01:27:31.989Z,56.93
2024-04-09T01:28:32.907Z,55.23
2024-04-09T01:29:33.785Z,58.24
2024-04-09T01:30:35.005Z,56.76
2024-04-09T01:31:35.483Z,56.86
2024-04-09T01:32:36.423Z,55.96
2024-04-09T01:33:37.422Z,56.16
2024-04-09T01:34:37.910Z,55.86
2024-04-09T01:35:38.823Z,56.86
2024-04-09T01:36:39.733Z,58.27
2024-04-09T01:37:40.584Z,58.07
2024-04-09T01:38:41.470Z,57.17
2024-04-09T01:39:42.358Z,57.97
2024-04-09T01:40:43.267Z,58.17
2024-04-09T01:41:44.145Z,59.88
2024-04-09T01:42:45.026Z,62.39
2024-04-09T01:43:45.902Z,60.28
2024-04-09T01:44:46.783Z,57.50
2024-04-09T01:45:47.847Z,58.00
2024-04-09T01:46:48.286Z,60.61
2024-04-09T01:47:49.228Z,62.52
2024-04-09T01:48:50.197Z,64.93
2024-04-09T01:49:51.060Z,63.96
2024-04-09T01:50:51.953Z,64.09
2024-04-09T01:51:52.833Z,66.71
2024-04-09T01:52:53.715Z,64.22
2024-04-09T01:53:54.645Z,63.92
2024-04-09T01:54:55.491Z,63.42
2024-04-09T01:55:56.393Z,62.88
2024-04-09T01:56:57.324Z,63.99
2024-04-09T01:57:58.176Z,64.49
2024-04-09T02:00:47.605Z,62.30
2024-04-09T02:01:49.054Z,62.01
2024-04-09T02:02:49.452Z,60.69
2024-04-09T02:03:50.426Z,60.47
2024-04-09T02:04:50.892Z,61.17
2024-04-09T02:05:51.742Z,59.96
2024-04-09T02:06:52.637Z,59.86
2024-04-09T02:07:53.530Z,58.86
2024-04-09T02:08:54.455Z,59.94
2024-04-09T02:09:55.364Z,59.13
2024-04-09T02:10:56.248Z,57.32
2024-04-09T02:11:57.268Z,60.44
2024-04-09T02:12:57.649Z,58.02
2024-04-09T02:13:58.549Z,58.12
2024-04-09T02:16:02.963Z,59.94
2024-04-09T02:17:03.880Z,60.33
2024-04-09T02:18:04.903Z,63.85
2024-04-09T02:19:05.295Z,66.40
2024-04-09T02:20:06.181Z,68.48
2024-04-09T02:21:07.097Z,70.59
2024-04-09T02:22:07.979Z,71.13
2024-04-09T02:23:08.880Z,71.84
2024-04-09T02:24:09.808Z,72.24
2024-04-09T02:25:10.641Z,72.67
2024-04-09T02:26:11.528Z,73.28
2024-04-09T02:27:12.467Z,75.34
2024-04-09T02:28:13.389Z,76.44
2024-04-09T02:29:14.276Z,75.98
2024-04-09T02:30:15.204Z,75.10
2024-04-09T02:31:16.174Z,75.81
2024-04-09T02:32:16.915Z,76.45
2024-04-09T02:33:17.358Z,76.75
2024-04-09T02:34:18.230Z,76.45
2024-04-09T02:35:19.111Z,75.27
2024-04-09T02:36:20.060Z,75.48
2024-04-09T02:37:20.912Z,74.57
2024-04-09T02:38:21.796Z,73.96
2024-04-09T02:39:22.763Z,74.26
2024-04-09T02:40:23.653Z,74.46
2024-04-09T02:41:24.525Z,74.57
2024-04-09T02:42:25.467Z,73.96
2024-04-09T02:43:26.318Z,73.66
2024-04-09T02:44:27.212Z,74.16
2024-04-09T02:45:28.108Z,74.57
2024-04-09T02:46:28.995Z,74.30
2024-04-09T02:47:29.946Z,74.50
2024-04-09T02:48:30.902Z,75.10
2024-04-09T02:49:31.345Z,73.59
2024-04-09T02:50:32.194Z,71.97
2024-04-09T02:51:33.456Z,71.57
2024-04-09T02:52:33.973Z,68.94
2024-04-09T02:53:34.858Z,65.75
2024-04-09T02:54:35.828Z,65.18
2024-04-09T02:55:36.714Z,64.54
2024-04-09T02:56:37.588Z,64.72
2024-04-09T02:57:38.584Z,64.51
2024-04-09T02:58:38.997Z,65.42
2024-04-09T02:59:39.873Z,66.22
2024-04-09T03:00:40.791Z,67.54
2024-04-09T03:01:41.668Z,68.34
2024-04-09T03:02:42.760Z,69.28
2024-04-09T03:03:43.292Z,69.99
2024-04-09T03:04:43.698Z,70.69
2024-04-09T03:05:44.583Z,71.64
2024-04-09T03:06:45.503Z,72.14
2024-04-09T03:07:46.366Z,73.05
2024-04-09T03:08:47.249Z,73.69
2024-04-09T03:09:48.210Z,74.29
2024-04-09T03:10:49.091Z,74.80
2024-04-09T03:11:49.964Z,75.34
2024-04-09T03:12:50.897Z,75.84
2024-04-09T03:13:51.801Z,76.15
2024-04-09T03:14:52.667Z,76.35
2024-04-09T03:15:53.652Z,76.59
2024-04-09T03:16:54.218Z,76.99
2024-04-09T03:17:55.234Z,77.19
2024-04-09T03:18:55.702Z,77.39
2024-04-09T03:19:56.135Z,77.70
2024-04-09T03:20:57.033Z,77.90
2024-04-09T03:21:57.908Z,78.10
2024-04-09T03:22:58.804Z,78.44
2024-04-09T03:23:59.743Z,78.55
2024-04-09T03:25:00.655Z,78.85
2024-04-09T03:26:01.551Z,78.64
2024-04-09T03:27:02.446Z,78.75
2024-04-09T03:28:03.314Z,78.75
2024-04-09T03:29:04.189Z,78.75
2024-04-09T03:30:05.107Z,78.95
2024-04-09T03:31:05.957Z,79.25
2024-04-09T03:32:06.866Z,79.55
2024-04-09T03:33:07.930Z,79.55
2024-04-09T03:34:08.368Z,79.90
2024-04-09T03:35:09.274Z,80.20
2024-04-09T03:36:10.351Z,80.80
2024-04-09T03:37:10.745Z,80.80
2024-04-09T03:38:11.632Z,80.91
2024-04-09T03:39:12.562Z,80.80
2024-04-09T03:40:13.462Z,81.11
2024-04-09T03:41:14.345Z,81.01
2024-04-09T03:42:15.274Z,81.21
2024-04-09T03:43:16.154Z,81.31
2024-04-09T03:44:17.022Z,81.51
2024-04-09T03:45:17.941Z,81.62
2024-04-09T03:46:18.823Z,81.76
2024-04-09T03:47:19.711Z,82.06
2024-04-09T03:48:20.780Z,82.26
2024-04-09T03:49:21.839Z,82.36
2024-04-09T03:50:21.808Z,82.06
2024-04-09T03:51:22.700Z,82.16
2024-04-09T03:52:23.576Z,82.36
2024-04-09T03:53:24.472Z,82.46
2024-04-09T03:54:25.381Z,82.87
2024-04-09T03:55:26.235Z,82.87
2024-04-09T03:56:27.135Z,83.07
2024-04-09T03:57:28.026Z,83.37
2024-04-09T03:58:28.913Z,83.82
2024-04-09T03:59:29.794Z,84.02
2024-04-09T04:00:30.701Z,83.92
2024-04-09T04:01:31.644Z,83.92
2024-04-09T04:02:32.121Z,84.02
2024-04-09T04:03:33.089Z,84.22
2024-04-09T04:04:33.547Z,84.12
2024-04-09T04:05:34.414Z,84.19
2024-04-09T04:06:35.322Z,84.53
2024-04-09T04:07:36.187Z,84.73
2024-04-09T04:08:37.103Z,84.73
2024-04-09T04:09:38.030Z,84.83
2024-04-09T04:10:38.902Z,85.13
2024-04-09T04:11:39.811Z,85.24
2024-04-09T04:12:40.688Z,85.24
2024-04-09T04:13:41.577Z,84.83
2024-04-09T04:14:42.451Z,85.03
2024-04-09T04:15:43.452Z,84.93
2024-04-09T04:16:43.892Z,84.73
2024-04-09T04:17:44.770Z,84.83
2024-04-09T04:18:45.913Z,85.03
2024-04-09T04:19:46.456Z,85.03
2024-04-09T04:20:47.351Z,85.58
2024-04-09T04:21:48.392Z,85.68
2024-04-09T04:22:48.816Z,85.58
2024-04-09T04:23:49.718Z,85.44
2024-04-09T04:24:50.599Z,85.54
2024-04-09T04:25:51.481Z,85.33
2024-04-09T04:26:52.385Z,85.27
2024-04-09T04:27:53.260Z,85.68
2024-04-09T04:28:54.170Z,86.08
2024-04-09T04:29:55.048Z,85.88
2024-04-09T04:30:55.919Z,85.99
2024-04-09T04:31:56.823Z,86.08
2024-04-09T04:32:57.913Z,86.08
2024-04-09T04:33:58.490Z,85.99
2024-04-09T04:34:58.973Z,86.19
2024-04-09T04:35:59.920Z,86.19
2024-04-09T04:37:00.777Z,85.78
2024-04-09T04:38:01.662Z,85.99
2024-04-09T04:39:02.609Z,85.78
2024-04-09T04:40:03.549Z,85.88
2024-04-09T04:41:04.400Z,85.99
2024-04-09T04:42:05.304Z,85.78
2024-04-09T04:43:06.166Z,85.78
2024-04-09T04:44:07.083Z,85.78
2024-04-09T04:45:07.987Z,85.58
2024-04-09T04:46:09.113Z,85.78
2024-04-09T04:47:09.637Z,85.68
2024-04-09T04:48:10.810Z,85.99
2024-04-09T04:49:11.640Z,85.48
2024-04-09T04:50:12.084Z,85.38
2024-04-09T04:51:13.037Z,85.58
2024-04-09T04:52:13.914Z,85.68
2024-04-09T04:53:14.788Z,85.48
2024-04-09T04:54:15.776Z,85.58
2024-04-09T04:55:16.631Z,85.58
2024-04-09T04:56:17.513Z,85.64
2024-04-09T04:57:18.507Z,85.38
2024-04-09T04:58:19.338Z,85.48
2024-04-09T04:59:20.237Z,85.38
2024-04-09T05:00:21.163Z,85.48
2024-04-09T05:01:22.050Z,85.99
2024-04-09T05:02:22.940Z,86.19
2024-04-09T05:03:24.045Z,86.08
2024-04-09T05:04:24.865Z,86.19
2024-04-09T05:05:25.311Z,86.49
2024-04-09T05:06:26.238Z,86.59
2024-04-09T05:07:27.125Z,86.59
2024-04-09T05:08:28.014Z,87.10
2024-04-09T05:09:28.946Z,86.69
2024-04-09T05:10:29.795Z,86.59
2024-04-09T05:11:30.753Z,86.90
2024-04-09T05:12:31.742Z,86.53
2024-04-09T05:13:32.161Z,86.33
2024-04-09T05:14:33.040Z,86.43
2024-04-09T05:15:34.051Z,86.73
2024-04-09T05:16:34.438Z,86.83
2024-04-09T05:17:35.410Z,87.24
2024-04-09T05:18:36.475Z,86.94
2024-04-09T05:19:37.062Z,87.74
2024-04-09T05:20:38.087Z,87.45
2024-04-09T05:21:38.677Z,87.45
2024-04-09T05:22:39.046Z,86.53
2024-04-09T05:23:39.924Z,86.43
2024-04-09T05:24:40.846Z,86.94
2024-04-09T05:25:41.702Z,87.24
2024-04-09T05:26:42.599Z,87.65
2024-04-09T05:27:43.523Z,87.04
2024-04-09T05:28:44.406Z,87.45
2024-04-09T05:29:45.279Z,87.54
2024-04-09T05:30:46.304Z,87.14
2024-04-09T05:31:47.021Z,87.24
2024-04-09T05:32:47.489Z,88.15
2024-04-09T05:33:48.423Z,88.35
2024-04-09T05:34:49.293Z,87.95
2024-04-09T05:35:50.160Z,87.59
2024-04-09T05:36:51.221Z,87.79
2024-04-09T05:37:51.762Z,87.65
2024-04-09T05:38:52.456Z,88.05
2024-04-09T05:39:53.332Z,87.24
2024-04-09T05:40:54.254Z,86.83
2024-04-09T05:41:55.160Z,87.04
2024-04-09T05:42:56.069Z,86.53
2024-04-09T05:43:56.940Z,87.04
2024-04-09T05:44:57.822Z,87.45
2024-04-09T05:45:58.704Z,86.63
2024-04-09T05:46:59.604Z,86.43
2024-04-09T05:48:00.724Z,86.63
2024-04-09T05:49:01.450Z,87.04
2024-04-09T05:50:02.012Z,86.73
2024-04-09T05:51:02.870Z,86.33
2024-04-09T05:52:03.764Z,86.63
2024-04-09T05:53:04.640Z,87.65
2024-04-09T05:54:05.559Z,87.04
2024-04-09T05:55:06.583Z,87.65
2024-04-09T05:56:07.046Z,86.94
2024-04-09T05:57:07.992Z,86.83
2024-04-09T05:58:08.855Z,87.04
2024-04-09T05:59:09.753Z,86.43
2024-04-09T06:00:10.717Z,86.73
2024-04-09T06:01:11.242Z,87.14
2024-04-09T06:02:11.735Z,87.45
2024-04-09T06:03:12.659Z,87.04
2024-04-09T06:04:16.838Z,86.83
2024-04-09T06:05:14.536Z,87.14
2024-04-09T06:06:15.422Z,86.94
2024-04-09T06:07:16.306Z,86.63
2024-04-09T06:08:17.185Z,87.04
2024-04-09T06:09:18.119Z,87.04
2024-04-09T06:10:18.985Z,87.34
2024-04-09T06:11:19.905Z,87.45
2024-04-09T06:12:20.828Z,87.54
2024-04-09T06:13:21.663Z,87.34
2024-04-09T06:14:22.545Z,87.74
2024-04-09T06:15:23.497Z,88.15
2024-04-09T06:16:24.412Z,89.06
2024-04-09T06:17:25.359Z,89.67
2024-04-09T06:18:26.418Z,88.90
2024-04-09T06:19:27.001Z,90.53
2024-04-09T06:20:27.461Z,91.85
2024-04-09T06:21:28.350Z,91.68
2024-04-09T06:22:29.228Z,92.09
2024-04-09T06:23:30.106Z,92.64
2024-04-09T06:24:31.107Z,93.86
2024-04-09T06:25:33.066Z,93.86
2024-04-09T06:26:32.931Z,94.37
2024-04-09T06:27:33.926Z,94.46
2024-04-09T06:28:34.313Z,94.98
2024-04-09T06:29:35.196Z,94.87
2024-04-09T06:30:36.116Z,95.07
2024-04-09T06:31:36.962Z,95.68
2024-04-09T06:32:37.938Z,95.58
2024-04-09T06:33:38.928Z,95.18
2024-04-09T06:34:39.402Z,95.07
2024-04-09T06:35:40.264Z,95.07
2024-04-09T06:36:41.191Z,94.87
2024-04-09T06:37:42.585Z,94.57
2024-04-09T06:38:42.966Z,94.98
2024-04-09T06:39:43.954Z,96.04
2024-04-09T06:40:44.830Z,95.64
2024-04-09T06:41:45.704Z,95.28
2024-04-09T06:42:46.673Z,95.68
2024-04-09T06:43:47.527Z,96.80
2024-04-09T06:44:48.417Z,95.79
2024-04-09T06:45:49.375Z,96.30
2024-04-09T06:46:50.239Z,95.79
2024-04-09T06:47:51.235Z,96.39
2024-04-09T06:48:52.233Z,97.00
2024-04-09T06:49:52.673Z,97.71
2024-04-09T06:50:53.562Z,97.96
2024-04-09T06:51:54.463Z,97.66
2024-04-09T06:52:55.330Z,96.95
2024-04-09T06:53:56.226Z,97.25
2024-04-09T06:54:57.113Z,97.56
2024-04-09T06:55:57.975Z,97.56
2024-04-09T06:56:58.895Z,97.56
2024-04-09T06:57:59.761Z,97.66
2024-04-09T06:59:00.655Z,97.76
2024-04-09T07:00:01.568Z,97.86
2024-04-09T07:01:02.511Z,97.96
2024-04-09T07:02:03.446Z,97.35
2024-04-09T07:03:04.363Z,97.76
2024-04-09T07:04:05.811Z,97.35
2024-04-09T07:05:05.984Z,97.45
2024-04-09T07:06:06.900Z,97.76
2024-04-09T07:07:07.773Z,97.35
2024-04-09T07:08:08.674Z,97.25
2024-04-09T07:09:09.672Z,97.15
2024-04-09T07:10:10.121Z,97.09
2024-04-09T07:11:11.013Z,97.09
2024-04-09T07:12:11.989Z,97.50
2024-04-09T07:13:12.851Z,97.40
2024-04-09T07:14:13.733Z,96.69
2024-04-09T07:15:14.638Z,96.89
2024-04-09T07:16:15.511Z,97.40
2024-04-09T07:17:16.411Z,97.60
2024-04-09T07:18:17.382Z,97.60
2024-04-09T07:19:17.765Z,97.71
2024-04-09T07:20:18.649Z,98.01
2024-04-09T07:21:19.722Z,97.56
2024-04-09T07:22:20.105Z,97.61
2024-04-09T07:23:20.988Z,97.41
2024-04-09T07:24:21.896Z,96.55
2024-04-09T07:25:22.770Z,96.41
2024-04-09T07:26:23.637Z,94.68
2024-04-09T07:27:24.558Z,93.46
2024-04-09T07:28:25.473Z,93.26
2024-04-09T07:29:26.360Z,93.97
2024-04-09T07:30:27.325Z,94.22
2024-04-09T07:31:28.220Z,95.23
2024-04-09T07:32:29.217Z,94.83
2024-04-09T07:33:30.121Z,94.93
2024-04-09T07:34:30.997Z,94.93
2024-04-09T07:35:31.882Z,95.13
2024-04-09T07:36:32.908Z,94.98
2024-04-09T07:37:33.765Z,94.38
2024-04-09T07:38:34.762Z,93.77
2024-04-09T07:39:35.517Z,93.10
2024-04-09T07:40:36.380Z,93.41
2024-04-09T07:41:37.264Z,94.22
2024-04-09T07:42:38.164Z,93.96
2024-04-09T07:43:40.959Z,94.57
2024-04-09T07:44:39.566Z,94.37
2024-04-09T07:45:40.484Z,93.90
2024-04-09T07:46:41.347Z,93.09
2024-04-09T07:47:42.352Z,94.31
2024-04-09T07:48:42.930Z,94.00
2024-04-09T07:49:43.290Z,94.71
2024-04-09T07:50:44.217Z,95.07
2024-04-09T07:51:45.110Z,95.18
2024-04-09T07:52:45.974Z,94.57
2024-04-09T07:53:46.878Z,94.06
2024-04-09T07:55:53.438Z,95.03
2024-04-09T07:56:54.339Z,94.48
2024-04-09T07:57:55.236Z,92.60
2024-04-09T07:58:56.138Z,93.10
2024-04-09T07:59:57.021Z,93.61
2024-04-09T08:00:58.085Z,94.02
2024-04-09T08:01:58.499Z,93.21
2024-04-09T08:02:59.696Z,91.99
2024-04-09T08:04:00.310Z,92.19
2024-04-09T08:05:00.915Z,91.68
2024-04-09T08:06:01.938Z,92.29
2024-04-09T08:07:02.419Z,91.83
2024-04-09T08:08:03.253Z,92.13
2024-04-09T08:09:03.963Z,91.83
2024-04-09T08:10:04.637Z,92.40
2024-04-09T08:11:05.271Z,91.78
2024-04-09T08:12:05.786Z,90.31
2024-04-09T08:13:06.361Z,90.20
2024-04-09T08:14:06.809Z,91.06
2024-04-09T08:15:07.707Z,91.63
2024-04-09T08:16:08.579Z,91.06
2024-04-09T08:17:09.461Z,91.87
2024-04-09T08:18:10.437Z,91.26
2024-04-09T08:19:11.034Z,91.77
2024-04-09T08:20:11.672Z,91.97
2024-04-09T08:21:12.230Z,91.06
2024-04-09T08:22:13.123Z,91.77
2024-04-09T08:23:13.986Z,92.58
2024-04-09T08:24:14.913Z,93.49
2024-04-09T08:25:15.790Z,93.90
2024-04-09T08:26:16.665Z,93.90
2024-04-09T08:27:17.608Z,92.42
2024-04-09T08:28:18.489Z,94.35
2024-04-09T08:29:19.661Z,95.17
2024-04-09T08:30:20.093Z,95.17
2024-04-09T08:31:20.991Z,95.98
2024-04-09T08:32:21.956Z,96.33
2024-04-09T08:33:22.962Z,96.53
2024-04-09T08:34:23.897Z,96.73
2024-04-09T08:35:23.980Z,96.98
2024-04-09T08:36:24.924Z,97.19
2024-04-09T08:37:25.917Z,97.39
2024-04-09T08:38:26.293Z,98.20
2024-04-09T08:39:26.904Z,98.20
2024-04-09T08:40:27.979Z,98.30
2024-04-09T08:41:28.380Z,98.50
2024-04-09T08:42:29.401Z,98.81
2024-04-09T08:43:29.869Z,98.91
2024-04-09T08:44:30.759Z,98.41
2024-04-09T08:45:31.708Z,98.50
2024-04-09T08:46:32.785Z,98.25
2024-04-09T08:47:33.404Z,98.96
2024-04-09T08:48:34.415Z,99.42
2024-04-09T08:49:34.910Z,98.25
2024-04-09T08:50:35.427Z,98.66
2024-04-09T08:51:36.245Z,99.47
2024-04-09T08:52:36.906Z,99.73
2024-04-09T08:53:37.292Z,98.55
2024-04-09T08:54:38.282Z,99.63
2024-04-09T08:55:38.730Z,99.02
2024-04-09T08:56:39.635Z,98.66
2024-04-09T08:57:40.568Z,98.41
2024-04-09T08:58:41.461Z,97.89
2024-04-09T08:59:42.367Z,97.29
2024-04-09T09:00:43.418Z,97.33
2024-04-09T09:01:43.889Z,98.14
2024-04-09T09:02:44.769Z,98.75
2024-04-09T09:03:45.763Z,99.06
2024-04-09T09:04:46.302Z,99.31
2024-04-09T09:05:46.727Z,99.11
2024-04-09T09:06:47.711Z,99.31
2024-04-09T09:07:48.213Z,99.31
2024-04-09T09:08:49.048Z,99.21
2024-04-09T09:09:50.522Z,99.62
2024-04-09T09:10:50.967Z,99.99
2024-04-09T09:11:51.818Z,99.99
2024-04-09T09:12:52.783Z,99.99
2024-04-09T09:13:53.661Z,99.99
2024-04-09T09:14:54.568Z,99.99
2024-04-09T09:15:55.498Z,99.99
2024-04-09T09:16:56.390Z,99.99
2024-04-09T09:17:57.354Z,99.99
2024-04-09T09:18:58.291Z,99.97
2024-04-09T09:20:02.065Z,99.05
2024-04-09T09:21:01.002Z,99.16
2024-04-09T09:22:00.876Z,99.16
2024-04-09T09:23:01.792Z,97.57
2024-04-09T09:24:02.774Z,97.47
2024-04-09T09:25:03.666Z,98.24
2024-04-09T09:26:04.549Z,97.12
2024-04-09T09:27:05.456Z,96.35
2024-04-09T09:28:06.329Z,96.76
2024-04-09T09:29:07.213Z,96.76
2024-04-09T09:30:08.185Z,97.37
2024-04-09T09:31:09.093Z,97.37
2024-04-09T09:32:10.113Z,97.47
2024-04-09T09:33:10.573Z,97.00
2024-04-09T09:34:11.086Z,97.27
2024-04-09T09:35:11.982Z,96.50
2024-04-09T09:36:12.914Z,96.60
2024-04-09T09:37:13.797Z,96.19
2024-04-09T09:38:14.685Z,95.37
2024-04-09T09:39:15.615Z,95.17
2024-04-09T09:40:16.551Z,95.48
2024-04-09T09:41:17.451Z,95.28
2024-04-09T09:42:18.346Z,95.21
2024-04-09T09:43:19.228Z,95.32
2024-04-09T09:44:20.123Z,96.34
2024-04-09T09:45:21.129Z,95.83
2024-04-09T09:46:21.986Z,95.93
2024-04-09T09:47:22.915Z,96.08
2024-04-09T09:48:23.892Z,96.69
2024-04-09T09:49:24.352Z,97.20
2024-04-09T09:50:24.852Z,97.81
2024-04-09T09:51:25.773Z,97.00
2024-04-09T09:52:26.642Z,96.48
2024-04-09T09:53:28.002Z,97.30
2024-04-09T09:54:28.406Z,97.00
2024-04-09T09:55:29.399Z,96.48
2024-04-09T09:56:29.447Z,96.48
2024-04-09T09:57:30.387Z,95.61
2024-04-09T09:58:31.231Z,94.70
2024-04-09T09:59:32.131Z,95.41
2024-04-09T10:00:33.099Z,96.33
2024-04-09T10:01:34.087Z,95.45
2024-04-09T10:02:35.718Z,95.86
2024-04-09T10:03:36.126Z,94.94
2024-04-09T10:04:36.666Z,93.05
2024-04-09T10:05:37.230Z,94.07
2024-04-09T10:06:37.730Z,94.78
2024-04-09T10:07:38.579Z,95.19
2024-04-09T10:08:39.475Z,95.90
2024-04-09T10:09:40.483Z,96.21
2024-04-09T10:10:40.935Z,96.31
2024-04-09T10:11:41.851Z,96.51
2024-04-09T10:12:42.764Z,96.31
2024-04-09T10:13:43.648Z,96.92
2024-04-09T10:14:44.557Z,95.70
2024-04-09T10:15:45.721Z,95.60
2024-04-09T10:16:46.207Z,95.09
2024-04-09T10:17:49.866Z,95.75
2024-04-09T10:18:47.894Z,94.52
2024-04-09T10:19:48.347Z,95.64
2024-04-09T10:20:49.250Z,94.93
2024-04-09T10:21:50.222Z,96.72
2024-04-09T10:22:51.111Z,97.08
2024-04-09T10:23:52.007Z,97.08
2024-04-09T10:24:52.919Z,97.95
2024-04-09T10:25:53.819Z,97.54
2024-04-09T10:26:54.729Z,97.49
2024-04-09T10:27:55.595Z,97.85
2024-04-09T10:28:56.483Z,98.36
2024-04-09T10:29:57.374Z,97.95
2024-04-09T10:30:58.275Z,97.74
2024-04-09T10:31:59.176Z,98.56
2024-04-09T10:33:00.287Z,98.36
2024-04-09T10:34:01.007Z,98.15
2024-04-09T10:35:01.546Z,98.66
2024-04-09T10:36:03.177Z,98.56
2024-04-09T10:37:02.581Z,98.61
2024-04-09T10:38:03.486Z,98.46
2024-04-09T10:39:04.622Z,98.46
2024-04-09T10:40:05.009Z,98.15
2024-04-09T10:41:05.917Z,97.54
2024-04-09T10:42:06.852Z,97.44
2024-04-09T10:43:07.719Z,96.62
2024-04-09T10:44:08.610Z,97.24
2024-04-09T10:45:09.549Z,97.13
2024-04-09T10:47:11.285Z,97.54
2024-04-09T10:48:12.300Z,98.25
2024-04-09T10:49:12.684Z,98.52
2024-04-09T10:50:13.574Z,97.03
2024-04-09T10:51:14.538Z,96.83
2024-04-09T10:52:15.393Z,96.01
2024-04-09T10:53:16.288Z,96.51
2024-04-09T10:54:17.211Z,96.42
2024-04-09T10:55:18.102Z,96.62
2024-04-09T10:56:19.013Z,96.83
2024-04-09T10:57:21.618Z,96.92
2024-04-09T10:58:20.526Z,96.21
2024-04-09T10:59:21.422Z,96.01
2024-04-09T11:00:22.401Z,95.70
2024-04-09T11:01:23.303Z,96.11
2024-04-09T11:02:24.212Z,95.60
2024-04-09T11:03:25.280Z,95.80
2024-04-09T11:04:25.864Z,96.72
2024-04-09T11:05:26.803Z,97.54
2024-04-09T11:06:27.765Z,96.31
2024-04-09T11:07:28.620Z,96.31
2024-04-09T11:08:29.943Z,95.86
2024-04-09T11:09:30.416Z,95.86
2024-04-09T11:10:31.322Z,95.86
2024-04-09T11:11:32.373Z,95.25
2024-04-09T11:12:32.873Z,95.76
2024-04-09T11:13:33.541Z,95.86
2024-04-09T11:14:33.979Z,95.86
2024-04-09T11:15:34.940Z,96.17
2024-04-09T11:16:35.846Z,95.35
2024-04-09T11:17:36.826Z,95.86
2024-04-09T11:18:37.788Z,95.35
2024-04-09T11:19:38.722Z,96.12
2024-04-09T11:20:39.600Z,96.59
2024-04-09T11:21:40.575Z,95.61
2024-04-09T11:22:40.997Z,95.06
2024-04-09T11:23:41.891Z,94.04
2024-04-09T11:24:42.955Z,94.04
2024-04-09T11:25:43.400Z,93.88
2024-04-09T11:26:44.856Z,94.29
2024-04-09T11:27:45.341Z,94.08
2024-04-09T11:28:46.210Z,95.31
2024-04-09T11:29:47.094Z,94.38
2024-04-09T11:30:48.123Z,94.90
2024-04-09T11:31:48.609Z,95.36
2024-04-09T11:32:49.586Z,94.14
2024-04-09T11:33:50.110Z,93.74
2024-04-09T11:34:50.777Z,93.13
2024-04-09T11:35:51.241Z,93.33
2024-04-09T11:36:52.221Z,92.22
2024-04-09T11:37:53.086Z,92.26
2024-04-09T11:38:53.981Z,92.05
2024-04-09T11:39:54.998Z,93.03
2024-04-09T11:40:55.874Z,92.63
2024-04-09T11:41:56.789Z,91.91
2024-04-09T11:42:57.678Z,92.18
2024-04-09T11:43:58.587Z,90.55
2024-04-09T11:44:59.494Z,91.97
2024-04-09T11:46:00.403Z,91.56
2024-04-09T11:47:01.399Z,89.94
2024-04-09T11:48:02.023Z,90.48
2024-04-09T11:49:03.283Z,90.59
2024-04-09T11:50:03.300Z,90.48
2024-04-09T11:51:04.227Z,90.08
2024-04-09T11:52:05.117Z,91.91
2024-04-09T11:53:05.995Z,91.87
2024-04-09T11:54:06.923Z,90.75
2024-04-09T11:55:10.598Z,88.81
2024-04-09T11:56:08.615Z,89.22
2024-04-09T11:57:09.607Z,88.51
2024-04-09T11:58:10.470Z,88.00
2024-04-09T11:59:11.353Z,87.63
2024-04-09T12:00:12.297Z,88.65
2024-04-09T12:01:13.431Z,86.82
2024-04-09T12:02:14.230Z,86.15
2024-04-09T12:03:14.687Z,85.13
2024-04-09T12:04:15.745Z,86.45
2024-04-09T12:05:16.263Z,86.96
2024-04-09T12:06:16.752Z,84.00
2024-04-09T12:07:17.630Z,85.02
2024-04-09T12:08:18.532Z,85.39
2024-04-09T12:09:19.429Z,84.67
2024-04-09T12:10:20.329Z,83.04
2024-04-09T12:11:22.601Z,84.27
2024-04-09T12:12:22.094Z,82.94
2024-04-09T12:13:22.958Z,83.42
2024-04-09T12:14:23.847Z,81.68
2024-04-09T12:15:24.738Z,83.01
2024-04-09T12:16:25.625Z,83.07
2024-04-09T12:17:26.582Z,77.06
2024-04-09T12:18:27.586Z,80.49
2024-04-09T12:19:28.068Z,77.84
2024-04-09T12:20:28.955Z,72.34
2024-04-09T12:21:29.876Z,72.65
2024-04-09T12:22:30.745Z,75.63
2024-04-09T12:23:31.630Z,72.25
2024-04-09T12:24:32.552Z,70.14
2024-04-09T12:25:33.445Z,69.09
2024-04-09T12:26:34.320Z,69.30
2024-04-09T12:27:35.301Z,70.01
2024-04-09T12:28:36.185Z,69.09
2024-04-09T12:29:37.062Z,68.18
2024-04-09T12:30:38.018Z,68.35
2024-04-09T12:31:38.873Z,66.60
2024-04-09T12:32:39.875Z,64.06
2024-04-09T12:33:40.487Z,67.20
2024-04-09T12:34:41.038Z,65.88
2024-04-09T12:35:41.547Z,64.18
2024-04-09T12:36:42.596Z,64.79
2024-04-09T12:37:43.033Z,64.39
2024-04-09T12:38:43.917Z,65.61
2024-04-09T12:39:44.946Z,65.48
2024-04-09T12:40:45.430Z,65.10
2024-04-09T12:41:46.292Z,63.48
2024-04-09T12:42:47.518Z,66.02
2024-04-09T12:43:47.951Z,63.07
2024-04-09T12:44:48.839Z,63.58
2024-04-09T12:45:49.878Z,62.46
2024-04-09T12:46:50.293Z,62.74
2024-04-09T12:47:51.270Z,62.60
2024-04-09T12:49:05.595Z,62.24
2024-04-09T12:49:54.104Z,60.62
2024-04-09T12:50:53.621Z,59.91
2024-04-09T12:51:54.505Z,60.21
2024-04-09T12:52:55.672Z,60.04
2024-04-09T12:53:56.044Z,59.16
2024-04-09T12:54:56.954Z,60.20
2024-04-09T12:55:57.870Z,60.78
2024-04-09T12:56:58.743Z,60.68
2024-04-09T12:57:59.666Z,60.35
2024-04-09T12:59:00.561Z,60.14
2024-04-09T13:00:14.526Z,58.31
2024-04-09T13:01:08.527Z,60.17
2024-04-09T13:02:04.171Z,58.42
2024-04-09T13:03:04.221Z,58.29
2024-04-09T13:04:04.400Z,57.09
2024-04-09T13:05:05.140Z,55.11
2024-04-09T13:06:05.852Z,55.07
2024-04-09T13:07:06.314Z,54.21
2024-04-09T13:08:07.202Z,51.10